TimeEDT,TemperatureF,Dew PointF,Humidity,Sea Level PressureIn,VisibilityMPH,Wind Direction,Wind SpeedMPH,Gust SpeedMPH,PrecipitationIn,Events,Conditions,WindDirDegrees,DateUTC
12:55 AM,50.0,44.6,82,30.01,10.0,Calm,Calm,-,N/A,,Clear,0,2012-10-07 04:55:00
1:55 AM,48.4,43.3,83,30.02,10.0,NW,5.8,-,N/A,,Clear,310,2012-10-07 05:55:00
2:55 AM,48.2,42.6,81,30.02,10.0,NW,5.8,-,N/A,,Clear,320,2012-10-07 06:55:00
3:55 AM,45.0,41.5,88,30.02,9.0,NNW,3.5,-,N/A,,Clear,340,2012-10-07 07:55:00
4:43 AM,44.6,41.0,87,30.03,8.0,Calm,Calm,-,N/A,,Clear,0,2012-10-07 08:43:00
4:52 AM,46.4,41.0,81,30.04,7.0,Calm,Calm,-,N/A,,Clear,0,2012-10-07 08:52:00
4:55 AM,46.0,41.7,85,30.05,7.0,NW,3.5,-,N/A,,Clear,320,2012-10-07 08:55:00
5:55 AM,44.8,40.5,85,30.06,8.0,Calm,Calm,-,N/A,,Clear,0,2012-10-07 09:55:00
6:00 AM,44.6,41.0,87,30.06,6.0,Calm,Calm,-,N/A,,Clear,0,2012-10-07 10:00:00
6:12 AM,44.6,41.0,87,30.07,8.0,Calm,Calm,-,N/A,,Clear,0,2012-10-07 10:12:00
6:49 AM,42.8,41.0,93,30.07,7.0,Calm,Calm,-,N/A,,Clear,0,2012-10-07 10:49:00
6:50 AM,42.8,41.0,93,30.07,7.0,Calm,Calm,-,N/A,,Clear,0,2012-10-07 10:50:00
6:55 AM,43.5,40.5,89,30.07,5.0,North,3.5,-,N/A,,Clear,350,2012-10-07 10:55:00
7:55 AM,47.5,43.2,85,30.08,10.0,Calm,Calm,-,N/A,,Overcast,0,2012-10-07 11:55:00
8:55 AM,50.0,43.3,78,30.09,9.0,Calm,Calm,-,N/A,,Overcast,0,2012-10-07 12:55:00
9:55 AM,51.6,42.4,71,30.10,8.0,Calm,Calm,-,N/A,,Overcast,0,2012-10-07 13:55:00
10:55 AM,52.0,43.5,73,30.11,10.0,NW,6.9,-,N/A,,Overcast,320,2012-10-07 14:55:00
11:39 AM,51.8,41.0,67,30.12,10.0,NW,5.8,-,N/A,Rain,Light Rain,310,2012-10-07 15:39:00
11:55 AM,51.3,41.5,69,30.12,10.0,NW,5.8,-,0.00,Rain,Light Rain,320,2012-10-07 15:55:00
12:27 PM,50.0,42.8,76,30.11,10.0,NNW,5.8,-,N/A,Rain,Light Rain,340,2012-10-07 16:27:00
12:55 PM,50.4,43.7,78,30.10,10.0,NNW,3.5,-,0.03,Rain,Light Rain,340,2012-10-07 16:55:00
1:27 PM,50.0,41.0,71,30.08,10.0,Calm,Calm,-,N/A,,Mostly Cloudy,0,2012-10-07 17:27:00
1:31 PM,50.0,41.0,71,30.08,10.0,Calm,Calm,-,N/A,Rain,Light Rain,0,2012-10-07 17:31:00
1:49 PM,50.0,42.8,76,30.08,10.0,NW,3.5,-,N/A,,Overcast,310,2012-10-07 17:49:00
1:55 PM,50.0,42.8,76,30.08,10.0,North,3.5,-,0.00,,Overcast,350,2012-10-07 17:55:00
2:55 PM,50.5,43.2,76,30.04,10.0,Calm,Calm,-,N/A,,Overcast,0,2012-10-07 18:55:00
3:55 PM,50.5,45.9,84,30.02,10.0,Calm,Calm,-,N/A,,Overcast,0,2012-10-07 19:55:00
4:55 PM,50.5,46.0,85,30.01,10.0,East,3.5,-,N/A,,Overcast,80,2012-10-07 20:55:00
5:55 PM,50.4,46.6,87,30.01,10.0,Calm,Calm,-,N/A,,Overcast,0,2012-10-07 21:55:00
6:17 PM,50.0,46.4,87,30.03,10.0,NW,3.5,-,N/A,,Overcast,310,2012-10-07 22:17:00
6:25 PM,50.0,46.4,87,30.03,10.0,NW,3.5,-,N/A,,Overcast,310,2012-10-07 22:25:00
6:32 PM,50.0,46.4,87,30.04,10.0,NW,3.5,-,N/A,,Overcast,320,2012-10-07 22:32:00
6:44 PM,50.0,46.4,87,30.04,10.0,NW,5.8,-,N/A,,Overcast,310,2012-10-07 22:44:00
6:55 PM,50.0,46.6,88,30.05,10.0,NW,4.6,-,N/A,,Overcast,310,2012-10-07 22:55:00
7:00 PM,50.0,46.4,87,30.05,10.0,NW,4.6,-,N/A,,Overcast,310,2012-10-07 23:00:00
7:15 PM,50.0,46.4,87,30.06,10.0,WNW,5.8,-,N/A,,Overcast,300,2012-10-07 23:15:00
7:24 PM,50.0,46.4,87,30.08,10.0,West,6.9,-,N/A,,Overcast,280,2012-10-07 23:24:00
7:30 PM,50.0,46.4,87,30.08,10.0,West,5.8,-,N/A,Rain,Light Rain,280,2012-10-07 23:30:00
7:40 PM,50.0,46.4,87,30.09,6.0,West,5.8,-,N/A,Rain,Rain,260,2012-10-07 23:40:00
7:43 PM,50.0,46.4,87,30.09,6.0,West,6.9,-,N/A,Rain,Rain,260,2012-10-07 23:43:00
7:55 PM,49.3,46.2,89,30.08,10.0,West,5.8,-,0.03,Rain,Light Rain,280,2012-10-07 23:55:00
8:28 PM,48.2,46.4,93,30.10,10.0,West,5.8,-,N/A,,Overcast,270,2012-10-08 00:28:00
8:52 PM,48.2,46.4,93,30.12,10.0,West,6.9,-,N/A,Rain,Light Rain,270,2012-10-08 00:52:00
8:55 PM,48.6,45.9,90,30.12,10.0,West,6.9,-,0.01,Rain,Light Rain,270,2012-10-08 00:55:00
9:41 PM,48.2,46.4,93,30.12,10.0,West,3.5,-,N/A,,Mostly Cloudy,280,2012-10-08 01:41:00
9:55 PM,48.2,45.9,92,30.11,10.0,Calm,Calm,-,0.01,,Mostly Cloudy,0,2012-10-08 01:55:00
10:55 PM,48.7,46.4,92,30.12,10.0,WNW,3.5,-,N/A,,Scattered Clouds,290,2012-10-08 02:55:00
11:55 PM,47.1,45.5,94,30.12,10.0,West,3.5,-,N/A,,Clear,270,2012-10-08 03:55:00